sensor_id;sensor_type;location;lat;lon;timestamp;pressure;altitude;pressure_sealevel;temperature;humidity
15914;BME280;8055;51.930;8.840;2023-01-28T00:00:30;78279.59;;;-145.72;100.00
15914;BME280;8055;51.930;8.840;2023-01-28T00:02:55;78277.50;;;-145.72;100.00
15914;BME280;8055;51.930;8.840;2023-01-28T00:05:20;78281.66;;;-145.72;100.00
15914;BME280;8055;51.930;8.840;2023-01-28T00:07:49;78281.66;;;-145.72;100.00
15914;BME280;8055;51.930;8.840;2023-01-28T00:10:14;78275.44;;;-145.72;100.00
15914;BME280;8055;51.930;8.840;2023-01-28T00:12:40;78279.59;;;-145.72;100.00
15914;BME280;8055;51.930;8.840;2023-01-28T00:15:06;78277.50;;;-145.72;100.00
15914;BME280;8055;51.930;8.840;2023-01-28T00:17:31;78277.50;;;-145.72;100.00
15914;BME280;8055;51.930;8.840;2023-01-28T00:19:56;78279.59;;;-145.72;100.00
15914;BME280;8055;51.930;8.840;2023-01-28T00:22:22;78281.66;;;-145.72;100.00
15914;BME280;8055;51.930;8.840;2023-01-28T00:24:48;78285.78;;;-145.72;100.00
15914;BME280;8055;51.930;8.840;2023-01-28T00:27:13;78287.88;;;-145.72;100.00
15914;BME280;8055;51.930;8.840;2023-01-28T00:29:39;78283.72;;;-145.72;100.00
15914;BME280;8055;51.930;8.840;2023-01-28T00:32:04;78289.94;;;-145.72;100.00
15914;BME280;8055;51.930;8.840;2023-01-28T00:34:30;78287.88;;;-145.72;100.00
15914;BME280;8055;51.930;8.840;2023-01-28T00:36:55;78283.72;;;-145.72;100.00
15914;BME280;8055;51.930;8.840;2023-01-28T00:39:25;78283.72;;;-145.72;100.00
15914;BME280;8055;51.930;8.840;2023-01-28T00:41:51;78283.72;;;-145.72;100.00
15914;BME280;8055;51.930;8.840;2023-01-28T00:44:18;78275.44;;;-145.72;100.00
15914;BME280;8055;51.930;8.840;2023-01-28T00:46:44;78283.72;;;-145.72;100.00
15914;BME280;8055;51.930;8.840;2023-01-28T00:49:09;78296.16;;;-145.72;100.00
15914;BME280;8055;51.930;8.840;2023-01-28T00:51:35;78289.94;;;-145.72;100.00
15914;BME280;8055;51.930;8.840;2023-01-28T00:54:00;78294.06;;;-145.72;100.00
15914;BME280;8055;51.930;8.840;2023-01-28T00:56:26;78306.50;;;-145.72;100.00
15914;BME280;8055;51.930;8.840;2023-01-28T00:58:51;78298.22;;;-145.72;100.00
15914;BME280;8055;51.930;8.840;2023-01-28T01:01:25;78300.28;;;-145.72;100.00
15914;BME280;8055;51.930;8.840;2023-01-28T01:03:51;78300.28;;;-145.72;100.00
15914;BME280;8055;51.930;8.840;2023-01-28T01:06:31;78302.34;;;-145.72;100.00
15914;BME280;8055;51.930;8.840;2023-01-28T01:08:57;78298.22;;;-145.72;100.00
15914;BME280;8055;51.930;8.840;2023-01-28T01:11:24;78300.28;;;-145.72;100.00
15914;BME280;8055;51.930;8.840;2023-01-28T01:13:52;78298.22;;;-145.72;100.00
15914;BME280;8055;51.930;8.840;2023-01-28T01:16:19;78300.28;;;-145.72;100.00
15914;BME280;8055;51.930;8.840;2023-01-28T01:18:44;78289.94;;;-145.72;100.00
15914;BME280;8055;51.930;8.840;2023-01-28T01:21:13;78292.00;;;-145.72;100.00
15914;BME280;8055;51.930;8.840;2023-01-28T01:23:39;78294.06;;;-145.72;100.00
15914;BME280;8055;51.930;8.840;2023-01-28T01:26:05;78289.94;;;-145.72;100.00
15914;BME280;8055;51.930;8.840;2023-01-28T01:28:31;78287.88;;;-145.72;100.00
15914;BME280;8055;51.930;8.840;2023-01-28T01:31:04;78283.72;;;-145.72;100.00
15914;BME280;8055;51.930;8.840;2023-01-28T01:33:30;78281.66;;;-145.72;100.00
15914;BME280;8055;51.930;8.840;2023-01-28T01:35:57;78292.00;;;-145.72;100.00
15914;BME280;8055;51.930;8.840;2023-01-28T01:38:22;78285.78;;;-145.72;100.00
15914;BME280;8055;51.930;8.840;2023-01-28T01:40:48;78292.00;;;-145.72;100.00
15914;BME280;8055;51.930;8.840;2023-01-28T01:43:21;78285.78;;;-145.72;100.00
15914;BME280;8055;51.930;8.840;2023-01-28T01:45:55;78283.72;;;-145.72;100.00
15914;BME280;8055;51.930;8.840;2023-01-28T01:48:24;78287.88;;;-145.72;100.00
15914;BME280;8055;51.930;8.840;2023-01-28T01:50:55;78281.66;;;-145.72;100.00
15914;BME280;8055;51.930;8.840;2023-01-28T01:53:23;78292.00;;;-145.72;100.00
15914;BME280;8055;51.930;8.840;2023-01-28T01:55:53;78292.00;;;-145.72;100.00
15914;BME280;8055;51.930;8.840;2023-01-28T01:58:23;78298.22;;;-145.72;100.00
15914;BME280;8055;51.930;8.840;2023-01-28T02:00:49;78300.28;;;-145.72;100.00
15914;BME280;8055;51.930;8.840;2023-01-28T02:03:18;78300.28;;;-145.72;100.00
15914;BME280;8055;51.930;8.840;2023-01-28T02:05:49;78296.16;;;-145.72;100.00
15914;BME280;8055;51.930;8.840;2023-01-28T02:08:14;78300.28;;;-145.72;100.00
15914;BME280;8055;51.930;8.840;2023-01-28T02:10:49;78294.06;;;-145.72;100.00
15914;BME280;8055;51.930;8.840;2023-01-28T02:13:16;78294.06;;;-145.72;100.00
15914;BME280;8055;51.930;8.840;2023-01-28T02:15:43;78308.56;;;-145.72;100.00
15914;BME280;8055;51.930;8.840;2023-01-28T02:18:09;78312.72;;;-145.72;100.00
15914;BME280;8055;51.930;8.840;2023-01-28T02:21:19;78316.84;;;-145.72;100.00
15914;BME280;8055;51.930;8.840;2023-01-28T02:23:58;78316.84;;;-145.72;100.00
15914;BME280;8055;51.930;8.840;2023-01-28T02:29:10;78321.00;;;-145.72;100.00
15914;BME280;8055;51.930;8.840;2023-01-28T02:31:54;78304.44;;;-145.72;100.00
15914;BME280;8055;51.930;8.840;2023-01-28T02:34:42;78310.63;;;-145.72;100.00
15914;BME280;8055;51.930;8.840;2023-01-28T02:37:20;78312.72;;;-145.72;100.00
15914;BME280;8055;51.930;8.840;2023-01-28T02:40:02;78325.13;;;-145.72;100.00
15914;BME280;8055;51.930;8.840;2023-01-28T02:42:33;78325.13;;;-145.72;100.00
15914;BME280;8055;51.930;8.840;2023-01-28T02:45:00;78316.84;;;-145.72;100.00
15914;BME280;8055;51.930;8.840;2023-01-28T02:47:26;78310.63;;;-145.72;100.00
15914;BME280;8055;51.930;8.840;2023-01-28T02:50:15;78323.06;;;-145.72;100.00
15914;BME280;8055;51.930;8.840;2023-01-28T02:56:01;78325.13;;;-145.72;100.00
15914;BME280;8055;51.930;8.840;2023-01-28T02:58:42;78327.22;;;-145.72;100.00
15914;BME280;8055;51.930;8.840;2023-01-28T03:01:26;78323.06;;;-145.72;100.00
15914;BME280;8055;51.930;8.840;2023-01-28T03:04:14;78335.50;;;-145.72;100.00
15914;BME280;8055;51.930;8.840;2023-01-28T03:06:47;78323.06;;;-145.72;100.00
15914;BME280;8055;51.930;8.840;2023-01-28T03:09:14;78321.00;;;-145.72;100.00
15914;BME280;8055;51.930;8.840;2023-01-28T03:11:50;78325.13;;;-145.72;100.00
15914;BME280;8055;51.930;8.840;2023-01-28T03:14:35;78337.56;;;-145.72;100.00
15914;BME280;8055;51.930;8.840;2023-01-28T03:17:32;78318.94;;;-145.72;100.00
15914;BME280;8055;51.930;8.840;2023-01-28T03:20:20;78323.06;;;-145.72;100.00
15914;BME280;8055;51.930;8.840;2023-01-28T03:23:08;78321.00;;;-145.72;100.00
15914;BME280;8055;51.930;8.840;2023-01-28T03:25:57;78333.41;;;-145.72;100.00
15914;BME280;8055;51.930;8.840;2023-01-28T03:28:45;78331.34;;;-145.72;100.00
15914;BME280;8055;51.930;8.840;2023-01-28T03:31:31;78331.34;;;-145.72;100.00
15914;BME280;8055;51.930;8.840;2023-01-28T03:34:17;78333.41;;;-145.72;100.00
15914;BME280;8055;51.930;8.840;2023-01-28T03:37:03;78331.34;;;-145.72;100.00
15914;BME280;8055;51.930;8.840;2023-01-28T03:39:29;78339.63;;;-145.72;100.00
15914;BME280;8055;51.930;8.840;2023-01-28T03:42:09;78329.28;;;-145.72;100.00
15914;BME280;8055;51.930;8.840;2023-01-28T03:44:36;78341.69;;;-145.72;100.00
15914;BME280;8055;51.930;8.840;2023-01-28T03:47:34;78329.28;;;-145.72;100.00
15914;BME280;8055;51.930;8.840;2023-01-28T03:49:59;78329.28;;;-145.72;100.00
15914;BME280;8055;51.930;8.840;2023-01-28T03:52:28;78329.28;;;-145.72;100.00
15914;BME280;8055;51.930;8.840;2023-01-28T03:54:54;78318.94;;;-145.72;100.00
15914;BME280;8055;51.930;8.840;2023-01-28T03:57:22;78329.28;;;-145.72;100.00
15914;BME280;8055;51.930;8.840;2023-01-28T03:59:48;78333.41;;;-145.72;100.00
15914;BME280;8055;51.930;8.840;2023-01-28T04:02:15;78339.63;;;-145.72;100.00
15914;BME280;8055;51.930;8.840;2023-01-28T04:04:41;78339.63;;;-145.72;100.00
15914;BME280;8055;51.930;8.840;2023-01-28T04:07:08;78345.84;;;-145.72;100.00
15914;BME280;8055;51.930;8.840;2023-01-28T04:09:35;78349.97;;;-145.72;100.00
15914;BME280;8055;51.930;8.840;2023-01-28T04:12:01;78362.41;;;-145.72;100.00
15914;BME280;8055;51.930;8.840;2023-01-28T04:14:26;78349.97;;;-145.72;100.00
15914;BME280;8055;51.930;8.840;2023-01-28T04:16:51;78347.91;;;-145.72;100.00
15914;BME280;8055;51.930;8.840;2023-01-28T04:19:19;78349.97;;;-145.72;100.00
15914;BME280;8055;51.930;8.840;2023-01-28T04:21:44;78345.84;;;-145.72;100.00
15914;BME280;8055;51.930;8.840;2023-01-28T04:24:10;78345.84;;;-145.72;100.00
15914;BME280;8055;51.930;8.840;2023-01-28T04:26:35;78343.78;;;-145.72;100.00
15914;BME280;8055;51.930;8.840;2023-01-28T04:29:01;78356.19;;;-145.72;100.00
15914;BME280;8055;51.930;8.840;2023-01-28T04:31:27;78354.13;;;-145.72;100.00
15914;BME280;8055;51.930;8.840;2023-01-28T04:33:52;78354.13;;;-145.72;100.00
15914;BME280;8055;51.930;8.840;2023-01-28T04:36:18;78366.53;;;-145.72;100.00
15914;BME280;8055;51.930;8.840;2023-01-28T04:38:43;78364.47;;;-145.72;100.00
15914;BME280;8055;51.930;8.840;2023-01-28T04:41:09;78370.69;;;-145.72;100.00
15914;BME280;8055;51.930;8.840;2023-01-28T04:43:34;78374.81;;;-145.72;100.00
15914;BME280;8055;51.930;8.840;2023-01-28T04:46:00;78372.75;;;-145.72;100.00
15914;BME280;8055;51.930;8.840;2023-01-28T04:48:25;78378.97;;;-145.72;100.00
15914;BME280;8055;51.930;8.840;2023-01-28T04:50:50;78385.19;;;-145.72;100.00
15914;BME280;8055;51.930;8.840;2023-01-28T04:53:16;78378.97;;;-145.72;100.00
15914;BME280;8055;51.930;8.840;2023-01-28T04:55:43;78383.09;;;-145.72;100.00
15914;BME280;8055;51.930;8.840;2023-01-28T04:58:09;78389.31;;;-145.72;100.00
15914;BME280;8055;51.930;8.840;2023-01-28T05:00:34;78385.19;;;-145.72;100.00
15914;BME280;8055;51.930;8.840;2023-01-28T05:03:00;78387.25;;;-145.72;100.00
15914;BME280;8055;51.930;8.840;2023-01-28T05:05:25;78376.91;;;-145.72;100.00
15914;BME280;8055;51.930;8.840;2023-01-28T05:07:55;78389.31;;;-145.72;100.00
15914;BME280;8055;51.930;8.840;2023-01-28T05:10:21;78387.25;;;-145.72;100.00
15914;BME280;8055;51.930;8.840;2023-01-28T05:12:47;78387.25;;;-145.72;100.00
15914;BME280;8055;51.930;8.840;2023-01-28T05:15:14;78389.31;;;-145.72;100.00
15914;BME280;8055;51.930;8.840;2023-01-28T05:17:40;78391.41;;;-145.72;100.00
15914;BME280;8055;51.930;8.840;2023-01-28T05:20:08;78389.31;;;-145.72;100.00
15914;BME280;8055;51.930;8.840;2023-01-28T05:22:33;78385.19;;;-145.72;100.00
15914;BME280;8055;51.930;8.840;2023-01-28T05:24:59;78399.69;;;-145.72;100.00
15914;BME280;8055;51.930;8.840;2023-01-28T05:27:24;78397.59;;;-145.72;100.00
15914;BME280;8055;51.930;8.840;2023-01-28T05:29:49;78381.03;;;-145.72;100.00
15914;BME280;8055;51.930;8.840;2023-01-28T05:32:15;78381.03;;;-145.72;100.00
15914;BME280;8055;51.930;8.840;2023-01-28T05:34:40;78374.81;;;-145.72;100.00
15914;BME280;8055;51.930;8.840;2023-01-28T05:37:05;78383.09;;;-145.72;100.00
15914;BME280;8055;51.930;8.840;2023-01-28T05:39:31;78387.25;;;-145.72;100.00
15914;BME280;8055;51.930;8.840;2023-01-28T05:41:56;78376.91;;;-145.72;100.00
15914;BME280;8055;51.930;8.840;2023-01-28T05:44:22;78376.91;;;-145.72;100.00
15914;BME280;8055;51.930;8.840;2023-01-28T05:46:47;78383.09;;;-145.72;100.00
15914;BME280;8055;51.930;8.840;2023-01-28T05:49:12;78383.09;;;-145.72;100.00
15914;BME280;8055;51.930;8.840;2023-01-28T05:51:38;78385.19;;;-145.72;100.00
15914;BME280;8055;51.930;8.840;2023-01-28T05:54:05;78378.97;;;-145.72;100.00
15914;BME280;8055;51.930;8.840;2023-01-28T05:56:30;78387.25;;;-145.72;100.00
15914;BME280;8055;51.930;8.840;2023-01-28T05:58:55;78397.59;;;-145.72;100.00
15914;BME280;8055;51.930;8.840;2023-01-28T06:01:21;78401.75;;;-145.72;100.00
15914;BME280;8055;51.930;8.840;2023-01-28T06:03:46;78403.81;;;-145.72;100.00
15914;BME280;8055;51.930;8.840;2023-01-28T06:06:12;78403.81;;;-145.72;100.00
15914;BME280;8055;51.930;8.840;2023-01-28T06:08:37;78403.81;;;-145.72;100.00
15914;BME280;8055;51.930;8.840;2023-01-28T06:11:02;78403.81;;;-145.72;100.00
15914;BME280;8055;51.930;8.840;2023-01-28T06:13:28;78397.59;;;-145.72;100.00
15914;BME280;8055;51.930;8.840;2023-01-28T06:15:53;78403.81;;;-145.72;100.00
15914;BME280;8055;51.930;8.840;2023-01-28T06:18:18;78389.31;;;-145.72;100.00
15914;BME280;8055;51.930;8.840;2023-01-28T06:20:44;78399.69;;;-145.72;100.00
15914;BME280;8055;51.930;8.840;2023-01-28T06:23:09;78399.69;;;-145.72;100.00
15914;BME280;8055;51.930;8.840;2023-01-28T06:25:34;78401.75;;;-145.72;100.00
15914;BME280;8055;51.930;8.840;2023-01-28T06:28:00;78401.75;;;-145.72;100.00
15914;BME280;8055;51.930;8.840;2023-01-28T06:30:25;78401.75;;;-145.72;100.00
15914;BME280;8055;51.930;8.840;2023-01-28T06:32:55;78405.88;;;-145.72;100.00
15914;BME280;8055;51.930;8.840;2023-01-28T06:35:20;78403.81;;;-145.72;100.00
15914;BME280;8055;51.930;8.840;2023-01-28T06:37:46;78410.03;;;-145.72;100.00
15914;BME280;8055;51.930;8.840;2023-01-28T06:40:11;78416.25;;;-145.72;100.00
15914;BME280;8055;51.930;8.840;2023-01-28T06:42:37;78426.59;;;-145.72;100.00
15914;BME280;8055;51.930;8.840;2023-01-28T06:45:02;78424.53;;;-145.72;100.00
15914;BME280;8055;51.930;8.840;2023-01-28T06:47:28;78428.66;;;-145.72;100.00
15914;BME280;8055;51.930;8.840;2023-01-28T06:49:53;78422.44;;;-145.72;100.00
15914;BME280;8055;51.930;8.840;2023-01-28T06:52:18;78424.53;;;-145.72;100.00
15914;BME280;8055;51.930;8.840;2023-01-28T06:54:44;78420.38;;;-145.72;100.00
15914;BME280;8055;51.930;8.840;2023-01-28T06:57:09;78420.38;;;-145.72;100.00
15914;BME280;8055;51.930;8.840;2023-01-28T06:59:34;78420.38;;;-145.72;100.00
15914;BME280;8055;51.930;8.840;2023-01-28T07:02:00;78426.59;;;-145.72;100.00
15914;BME280;8055;51.930;8.840;2023-01-28T07:04:25;78424.53;;;-145.72;100.00
15914;BME280;8055;51.930;8.840;2023-01-28T07:06:50;78422.44;;;-145.72;100.00
15914;BME280;8055;51.930;8.840;2023-01-28T07:09:16;78424.53;;;-145.72;100.00
15914;BME280;8055;51.930;8.840;2023-01-28T07:11:41;78422.44;;;-145.72;100.00
15914;BME280;8055;51.930;8.840;2023-01-28T07:14:06;78420.38;;;-145.72;100.00
15914;BME280;8055;51.930;8.840;2023-01-28T07:16:32;78412.09;;;-145.72;100.00
15914;BME280;8055;51.930;8.840;2023-01-28T07:18:57;78407.97;;;-145.72;100.00
15914;BME280;8055;51.930;8.840;2023-01-28T07:21:23;78412.09;;;-145.72;100.00
15914;BME280;8055;51.930;8.840;2023-01-28T07:23:48;78403.81;;;-145.72;100.00
15914;BME280;8055;51.930;8.840;2023-01-28T07:26:13;78407.97;;;-145.72;100.00
15914;BME280;8055;51.930;8.840;2023-01-28T07:28:40;78412.09;;;-145.72;100.00
15914;BME280;8055;51.930;8.840;2023-01-28T07:31:05;78407.97;;;-145.72;100.00
15914;BME280;8055;51.930;8.840;2023-01-28T07:33:30;78418.31;;;-145.72;100.00
15914;BME280;8055;51.930;8.840;2023-01-28T07:35:56;78420.38;;;-145.72;100.00
15914;BME280;8055;51.930;8.840;2023-01-28T07:38:21;78422.44;;;-145.72;100.00
15914;BME280;8055;51.930;8.840;2023-01-28T07:40:47;78420.38;;;-145.72;100.00
15914;BME280;8055;51.930;8.840;2023-01-28T07:43:12;78422.44;;;-145.72;100.00
15914;BME280;8055;51.930;8.840;2023-01-28T07:45:38;78420.38;;;-145.72;100.00
15914;BME280;8055;51.930;8.840;2023-01-28T07:48:06;78428.66;;;-145.72;100.00
15914;BME280;8055;51.930;8.840;2023-01-28T07:50:34;78441.09;;;-145.72;100.00
15914;BME280;8055;51.930;8.840;2023-01-28T07:53:05;78443.16;;;-145.72;100.00
15914;BME280;8055;51.930;8.840;2023-01-28T07:55:31;78445.22;;;-145.72;100.00
15914;BME280;8055;51.930;8.840;2023-01-28T07:57:59;78443.16;;;-145.72;100.00
15914;BME280;8055;51.930;8.840;2023-01-28T08:00:27;78447.31;;;-145.72;100.00
15914;BME280;8055;51.930;8.840;2023-01-28T08:03:01;78443.16;;;-145.72;100.00
15914;BME280;8055;51.930;8.840;2023-01-28T08:05:36;78434.88;;;-145.72;100.00
15914;BME280;8055;51.930;8.840;2023-01-28T08:08:04;78426.59;;;-145.72;100.00
15914;BME280;8055;51.930;8.840;2023-01-28T08:10:29;78430.72;;;-145.72;100.00
15914;BME280;8055;51.930;8.840;2023-01-28T08:12:57;78424.53;;;-145.72;100.00
15914;BME280;8055;51.930;8.840;2023-01-28T08:15:26;78422.44;;;-145.72;100.00
15914;BME280;8055;51.930;8.840;2023-01-28T08:17:58;78432.81;;;-145.72;100.00
15914;BME280;8055;51.930;8.840;2023-01-28T08:20:25;78445.22;;;-145.72;100.00
15914;BME280;8055;51.930;8.840;2023-01-28T08:22:51;78428.66;;;-145.72;100.00
15914;BME280;8055;51.930;8.840;2023-01-28T08:25:16;78430.72;;;-145.72;100.00
15914;BME280;8055;51.930;8.840;2023-01-28T08:27:42;78436.94;;;-145.72;100.00
15914;BME280;8055;51.930;8.840;2023-01-28T08:30:08;78441.09;;;-145.72;100.00
15914;BME280;8055;51.930;8.840;2023-01-28T08:32:34;78436.94;;;-145.72;100.00
15914;BME280;8055;51.930;8.840;2023-01-28T08:34:59;78436.94;;;-145.72;100.00
15914;BME280;8055;51.930;8.840;2023-01-28T08:37:25;78436.94;;;-145.72;100.00
15914;BME280;8055;51.930;8.840;2023-01-28T08:39:50;78441.09;;;-145.72;100.00
15914;BME280;8055;51.930;8.840;2023-01-28T08:42:16;78434.88;;;-145.72;100.00
15914;BME280;8055;51.930;8.840;2023-01-28T08:44:41;78430.72;;;-145.72;100.00
15914;BME280;8055;51.930;8.840;2023-01-28T08:47:07;78436.94;;;-145.72;100.00
15914;BME280;8055;51.930;8.840;2023-01-28T08:49:32;78447.31;;;-145.72;100.00
15914;BME280;8055;51.930;8.840;2023-01-28T08:51:58;78445.22;;;-145.72;100.00
15914;BME280;8055;51.930;8.840;2023-01-28T08:54:23;78432.81;;;-145.72;100.00
15914;BME280;8055;51.930;8.840;2023-01-28T08:56:48;78430.72;;;-145.72;100.00
15914;BME280;8055;51.930;8.840;2023-01-28T08:59:15;78441.09;;;-145.72;100.00
15914;BME280;8055;51.930;8.840;2023-01-28T09:01:41;78434.88;;;-145.72;100.00
15914;BME280;8055;51.930;8.840;2023-01-28T09:04:06;78441.09;;;-145.72;100.00
15914;BME280;8055;51.930;8.840;2023-01-28T09:06:31;78445.22;;;-145.72;100.00
15914;BME280;8055;51.930;8.840;2023-01-28T09:08:58;78449.38;;;-145.72;100.00
15914;BME280;8055;51.930;8.840;2023-01-28T09:11:24;78457.66;;;-145.72;100.00
15914;BME280;8055;51.930;8.840;2023-01-28T09:13:49;78470.06;;;-145.72;100.00
15914;BME280;8055;51.930;8.840;2023-01-28T09:16:15;78470.06;;;-145.72;100.00
15914;BME280;8055;51.930;8.840;2023-01-28T09:18:40;78468.00;;;-145.72;100.00
15914;BME280;8055;51.930;8.840;2023-01-28T09:21:06;78453.50;;;-145.72;100.00
15914;BME280;8055;51.930;8.840;2023-01-28T09:23:36;78445.22;;;-145.72;100.00
15914;BME280;8055;51.930;8.840;2023-01-28T09:26:03;78457.66;;;-145.72;100.00
15914;BME280;8055;51.930;8.840;2023-01-28T09:28:29;78455.59;;;-145.72;100.00
15914;BME280;8055;51.930;8.840;2023-01-28T09:31:08;78457.66;;;-145.72;100.00
15914;BME280;8055;51.930;8.840;2023-01-28T09:33:34;78463.88;;;-145.72;100.00
15914;BME280;8055;51.930;8.840;2023-01-28T09:36:02;78465.94;;;-145.72;100.00
15914;BME280;8055;51.930;8.840;2023-01-28T09:38:28;78465.94;;;-145.72;100.00
15914;BME280;8055;51.930;8.840;2023-01-28T09:40:54;78470.06;;;-145.72;100.00
15914;BME280;8055;51.930;8.840;2023-01-28T09:44:00;78486.63;;;-145.72;100.00
15914;BME280;8055;51.930;8.840;2023-01-28T09:46:32;78499.06;;;-145.72;100.00
15914;BME280;8055;51.930;8.840;2023-01-28T09:48:59;78484.56;;;-145.72;100.00
15914;BME280;8055;51.930;8.840;2023-01-28T09:54:03;78478.34;;;-145.72;100.00
15914;BME280;8055;51.930;8.840;2023-01-28T09:56:35;78492.84;;;-145.72;100.00
15914;BME280;8055;51.930;8.840;2023-01-28T09:59:15;78501.13;;;-145.72;100.00
15914;BME280;8055;51.930;8.840;2023-01-28T10:01:46;78507.34;;;-145.72;100.00
15914;BME280;8055;51.930;8.840;2023-01-28T10:07:33;78511.50;;;-145.72;100.00
15914;BME280;8055;51.930;8.840;2023-01-28T10:17:54;78494.94;;;-145.72;100.00
15914;BME280;8055;51.930;8.840;2023-01-28T10:20:27;78488.72;;;-145.72;100.00
15914;BME280;8055;51.930;8.840;2023-01-28T10:23:00;78484.56;;;-145.72;100.00
15914;BME280;8055;51.930;8.840;2023-01-28T10:25:30;78465.94;;;-145.72;100.00
15914;BME280;8055;51.930;8.840;2023-01-28T10:27:57;78459.72;;;-145.72;100.00
15914;BME280;8055;51.930;8.840;2023-01-28T10:30:29;78461.78;;;-145.72;100.00
15914;BME280;8055;51.930;8.840;2023-01-28T10:33:02;78449.38;;;-145.72;100.00
15914;BME280;8055;51.930;8.840;2023-01-28T10:35:36;78441.09;;;-145.72;100.00
15914;BME280;8055;51.930;8.840;2023-01-28T10:38:06;78432.81;;;-145.72;100.00
15914;BME280;8055;51.930;8.840;2023-01-28T10:40:33;78426.59;;;-145.72;100.00
15914;BME280;8055;51.930;8.840;2023-01-28T10:42:59;78434.88;;;-145.72;100.00
15914;BME280;8055;51.930;8.840;2023-01-28T10:45:27;78439.00;;;-145.72;100.00
15914;BME280;8055;51.930;8.840;2023-01-28T10:48:07;78424.53;;;-145.72;100.00
15914;BME280;8055;51.930;8.840;2023-01-28T10:50:52;78424.53;;;-145.72;100.00
15914;BME280;8055;51.930;8.840;2023-01-28T10:53:17;78436.94;;;-145.72;100.00
15914;BME280;8055;51.930;8.840;2023-01-28T10:55:57;78447.31;;;-145.72;100.00
15914;BME280;8055;51.930;8.840;2023-01-28T10:58:26;78443.16;;;-145.72;100.00
15914;BME280;8055;51.930;8.840;2023-01-28T11:00:59;78445.22;;;-145.72;100.00
15914;BME280;8055;51.930;8.840;2023-01-28T11:03:25;78445.22;;;-145.72;100.00
15914;BME280;8055;51.930;8.840;2023-01-28T11:05:59;78449.38;;;-145.72;100.00
15914;BME280;8055;51.930;8.840;2023-01-28T11:08:27;78453.50;;;-145.72;100.00
15914;BME280;8055;51.930;8.840;2023-01-28T11:10:54;78459.72;;;-145.72;100.00
15914;BME280;8055;51.930;8.840;2023-01-28T11:13:26;78463.88;;;-145.72;100.00
15914;BME280;8055;51.930;8.840;2023-01-28T11:18:27;78468.00;;;-145.72;100.00
15914;BME280;8055;51.930;8.840;2023-01-28T11:21:00;78476.28;;;-145.72;100.00
15914;BME280;8055;51.930;8.840;2023-01-28T11:23:40;78480.44;;;-145.72;100.00
15914;BME280;8055;51.930;8.840;2023-01-28T11:26:18;78480.44;;;-145.72;100.00
15914;BME280;8055;51.930;8.840;2023-01-28T11:28:44;78470.06;;;-145.72;100.00
15914;BME280;8055;51.930;8.840;2023-01-28T11:31:15;78459.72;;;-145.72;100.00
15914;BME280;8055;51.930;8.840;2023-01-28T11:33:45;78459.72;;;-145.72;100.00
15914;BME280;8055;51.930;8.840;2023-01-28T11:36:20;78445.22;;;-145.72;100.00
15914;BME280;8055;51.930;8.840;2023-01-28T11:38:52;78441.09;;;-145.72;100.00
15914;BME280;8055;51.930;8.840;2023-01-28T11:41:27;78432.81;;;-145.72;100.00
15914;BME280;8055;51.930;8.840;2023-01-28T11:43:54;78447.31;;;-145.72;100.00
15914;BME280;8055;51.930;8.840;2023-01-28T11:48:58;78455.59;;;-145.72;100.00
15914;BME280;8055;51.930;8.840;2023-01-28T11:51:37;78447.31;;;-145.72;100.00
15914;BME280;8055;51.930;8.840;2023-01-28T11:59:41;78430.72;;;-145.72;100.00
15914;BME280;8055;51.930;8.840;2023-01-28T12:05:36;78397.59;;;-145.72;100.00
15914;BME280;8055;51.930;8.840;2023-01-28T12:16:24;78416.25;;;-145.72;100.00
15914;BME280;8055;51.930;8.840;2023-01-28T12:19:30;78383.09;;;-145.72;100.00
15914;BME280;8055;51.930;8.840;2023-01-28T12:22:33;78374.81;;;-145.72;100.00
15914;BME280;8055;51.930;8.840;2023-01-28T12:33:46;78304.44;;;-145.72;100.00
15914;BME280;8055;51.930;8.840;2023-01-28T12:39:40;78242.31;;;-145.72;100.00
15914;BME280;8055;51.930;8.840;2023-01-28T12:42:14;78234.03;;;-145.72;100.00
15914;BME280;8055;51.930;8.840;2023-01-28T12:44:47;78217.47;;;-145.72;100.00
15914;BME280;8055;51.930;8.840;2023-01-28T12:47:27;78198.84;;;-145.72;100.00
15914;BME280;8055;51.930;8.840;2023-01-28T12:50:03;78186.41;;;-145.72;100.00
15914;BME280;8055;51.930;8.840;2023-01-28T12:52:43;78194.69;;;-145.72;100.00
15914;BME280;8055;51.930;8.840;2023-01-28T12:55:18;78169.84;;;-145.72;100.00
15914;BME280;8055;51.930;8.840;2023-01-28T12:57:46;78155.34;;;-145.72;100.00
15914;BME280;8055;51.930;8.840;2023-01-28T13:00:29;78132.56;;;-145.72;100.00
15914;BME280;8055;51.930;8.840;2023-01-28T13:03:35;78109.81;;;-145.72;100.00
15914;BME280;8055;51.930;8.840;2023-01-28T13:06:09;78099.44;;;-145.72;100.00
15914;BME280;8055;51.930;8.840;2023-01-28T13:08:37;78109.81;;;-145.72;100.00
15914;BME280;8055;51.930;8.840;2023-01-28T13:11:04;78132.56;;;-145.72;100.00
15914;BME280;8055;51.930;8.840;2023-01-28T13:13:38;78153.28;;;-145.72;100.00
15914;BME280;8055;51.930;8.840;2023-01-28T13:16:07;78163.63;;;-145.72;100.00
15914;BME280;8055;51.930;8.840;2023-01-28T13:21:06;78159.50;;;-145.72;100.00
15914;BME280;8055;51.930;8.840;2023-01-28T13:28:42;78180.19;;;-145.72;100.00
15914;BME280;8055;51.930;8.840;2023-01-28T13:31:14;78196.75;;;-145.72;100.00
15914;BME280;8055;51.930;8.840;2023-01-28T13:36:26;78244.38;;;-145.72;100.00
15914;BME280;8055;51.930;8.840;2023-01-28T13:46:51;78312.72;;;-145.72;100.00
15914;BME280;8055;51.930;8.840;2023-01-28T13:52:03;78298.22;;;-145.72;100.00
15914;BME280;8055;51.930;8.840;2023-01-28T13:54:34;78304.44;;;-145.72;100.00
15914;BME280;8055;51.930;8.840;2023-01-28T13:57:30;78312.72;;;-145.72;100.00
15914;BME280;8055;51.930;8.840;2023-01-28T14:00:20;78312.72;;;-145.72;100.00
15914;BME280;8055;51.930;8.840;2023-01-28T14:06:11;78316.84;;;-145.72;100.00
15914;BME280;8055;51.930;8.840;2023-01-28T14:14:42;78323.06;;;-145.72;100.00
15914;BME280;8055;51.930;8.840;2023-01-28T14:19:49;78323.06;;;-145.72;100.00